Time;durP1;ratioP1;P1;durP2;ratioP2;P2;SDS_P1;SDS_P2;PMS_P1;PMS_P2;Temp;Humidity;BMP_temperature;BMP_pressure;BME280_temperature;BME280_humidity;BME280_pressure;Samples;Min_cycle;Max_cycle;Signal;HPM_P1;HPM_P2
2022/05/08 00:01:56;;;;;;;7.10;6.60;;;;;;;12.96;67.72;100691.06;10515878;28;20135;-85
2022/05/08 00:07:08;;;;;;;6.00;5.50;;;;;;;12.85;68.62;100682.63;10521748;28;20045;-85
2022/05/08 00:12:27;;;;;;;8.48;6.22;;;;;;;12.97;68.50;100670.81;10518456;28;20047;-85
2022/05/08 00:17:34;;;;;;;6.43;5.93;;;;;;;12.93;68.77;100679.75;10515286;28;20048;-85
2022/05/08 00:22:45;;;;;;;7.45;6.72;;;;;;;13.03;68.64;100670.63;10515168;28;20052;-85
2022/05/08 00:27:54;;;;;;;9.27;6.78;;;;;;;12.67;70.37;100683.19;10514739;28;20573;-85
2022/05/08 00:32:56;;;;;;;7.15;6.50;;;;;;;12.73;70.57;100672.44;10498481;28;20045;-85
2022/05/08 00:37:58;;;;;;;7.32;6.72;;;;;;;12.83;69.55;100668.59;10516413;28;20564;-85
2022/05/08 00:43:34;;;;;;;7.35;6.85;;;;;;;12.18;72.30;100674.94;10503562;28;20081;-84
2022/05/08 00:48:40;;;;;;;6.45;5.95;;;;;;;12.15;72.34;100659.19;10531558;28;20047;-85
2022/05/08 00:53:45;;;;;;;7.00;6.45;;;;;;;12.20;72.61;100662.56;10511958;28;20056;-85
2022/05/08 00:58:50;;;;;;;5.43;5.03;;;;;;;11.97;73.45;100662.34;10537083;28;20044;-84
2022/05/08 01:03:52;;;;;;;10.80;6.47;;;;;;;11.94;73.65;100665.91;10518738;28;20127;-84
2022/05/08 01:08:54;;;;;;;6.35;5.85;;;;;;;12.06;72.77;100664.72;10492657;28;20044;-84
2022/05/08 01:14:00;;;;;;;8.13;7.43;;;;;;;12.08;72.95;100669.03;10508988;28;20044;-85
2022/05/08 01:19:05;;;;;;;9.25;8.40;;;;;;;11.96;73.78;100666.75;10507613;28;20040;-85
2022/05/08 01:24:25;;;;;;;8.93;8.15;;;;;;;11.59;74.98;100686.09;10508320;28;20036;-85
2022/05/08 01:29:31;;;;;;;8.63;8.02;;;;;;;11.45;76.11;100682.09;10490775;28;20045;-86
2022/05/08 01:34:37;;;;;;;8.88;8.25;;;;;;;11.40;76.25;100678.72;10506376;28;20055;-85
2022/05/08 01:39:44;;;;;;;8.15;7.55;;;;;;;11.75;75.09;100678.69;10491377;28;20040;-84
2022/05/08 01:44:46;;;;;;;7.72;7.03;;;;;;;12.00;73.99;100673.66;10505539;28;20078;-86
2022/05/08 01:49:53;;;;;;;10.02;7.63;;;;;;;11.68;75.30;100674.47;10508073;28;20040;-85
2022/05/08 01:54:56;;;;;;;9.07;8.48;;;;;;;11.24;77.31;100680.84;10509215;28;20082;-85
2022/05/08 01:59:58;;;;;;;7.93;7.32;;;;;;;11.22;77.83;100693.19;10495111;28;20071;-85
2022/05/08 02:05:05;;;;;;;8.27;7.68;;;;;;;11.22;78.03;100695.84;10513214;28;20044;-85
2022/05/08 02:10:09;;;;;;;8.02;7.47;;;;;;;11.26;77.99;100697.50;10520086;28;20040;-84
2022/05/08 02:15:15;;;;;;;7.60;6.90;;;;;;;11.54;75.25;100695.91;10541037;28;20031;-85
2022/05/08 02:20:22;;;;;;;7.70;7.10;;;;;;;11.39;75.82;100691.03;10498351;28;20040;-85
2022/05/08 02:25:25;;;;;;;7.97;7.38;;;;;;;10.97;77.98;100703.41;10540010;22;20524;-80
2022/05/08 02:30:26;;;;;;;6.82;6.22;;;;;;;10.84;78.46;100708.09;10464369;28;20043;-79
2022/05/08 02:35:28;;;;;;;7.13;6.60;;;;;;;10.72;78.91;100708.38;10548958;28;20048;-78
2022/05/08 02:40:30;;;;;;;7.13;6.63;;;;;;;10.77;79.20;100706.50;10550802;28;20051;-79
2022/05/08 02:45:31;;;;;;;6.93;6.43;;;;;;;11.15;76.97;100705.63;10549715;28;20036;-79
2022/05/08 02:50:33;;;;;;;8.35;5.60;;;;;;;10.85;77.65;100710.69;10549509;28;20040;-79
2022/05/08 03:00:54;;;;;;;7.72;7.13;;;;;;;10.97;77.69;100712.16;10549939;28;20074;-79
2022/05/08 03:05:55;;;;;;;7.43;6.90;;;;;;;10.83;78.59;100716.88;10491366;28;20044;-79
2022/05/08 03:16:18;;;;;;;7.72;7.22;;;;;;;10.70;80.01;100723.31;10550952;28;20040;-80
2022/05/08 03:21:20;;;;;;;7.63;7.13;;;;;;;10.37;81.50;100725.75;10563428;28;20048;-81
2022/05/08 03:26:22;;;;;;;8.07;7.43;;;;;;;10.47;81.16;100723.78;10561913;28;20040;-80
2022/05/08 03:31:25;;;;;;;8.10;7.50;;;;;;;10.33;82.16;100726.69;10468014;28;20052;-79
2022/05/08 03:36:27;;;;;;;8.00;7.40;;;;;;;10.67;81.14;100719.00;10588098;28;20039;-79
2022/05/08 03:41:28;;;;;;;8.38;7.70;;;;;;;10.43;81.95;100730.88;10500804;28;20044;-79
2022/05/08 03:46:30;;;;;;;9.32;8.18;;;;;;;10.49;81.86;100733.38;10557860;28;20044;-81
2022/05/08 03:51:31;;;;;;;8.60;8.00;;;;;;;10.67;81.72;100744.38;10555670;28;20044;-80
2022/05/08 03:56:33;;;;;;;10.70;9.80;;;;;;;10.73;81.49;100745.16;10553593;28;20036;-80
2022/05/08 04:01:34;;;;;;;10.18;9.32;;;;;;;10.88;81.36;100740.44;10551421;28;20047;-79
2022/05/08 04:06:38;;;;;;;9.20;8.50;;;;;;;11.06;78.71;100745.28;10550331;28;20048;-80
2022/05/08 04:11:39;;;;;;;8.45;7.70;;;;;;;11.23;78.78;100747.56;10551192;28;20044;-79
2022/05/08 04:16:41;;;;;;;8.90;8.20;;;;;;;11.16;80.52;100751.25;10549277;28;20136;-79
2022/05/08 04:21:42;;;;;;;8.00;7.28;;;;;;;11.45;78.29;100745.28;10549533;28;20051;-80
2022/05/08 04:26:47;;;;;;;7.45;6.95;;;;;;;11.60;78.13;100739.66;10591232;28;20020;-78
2022/05/08 04:31:48;;;;;;;8.07;7.47;;;;;;;11.49;77.74;100749.56;10593754;28;20047;-77
2022/05/08 04:36:51;;;;;;;7.78;7.07;;;;;;;11.56;76.77;100753.81;10577692;28;20040;-78
2022/05/08 04:41:52;;;;;;;9.70;9.00;;;;;;;11.59;77.37;100756.34;10470983;28;20485;-80
2022/05/08 04:46:54;;;;;;;7.97;7.28;;;;;;;11.86;76.26;100755.72;10556754;28;20485;-80
2022/05/08 04:51:55;;;;;;;7.15;6.65;;;;;;;12.12;74.19;100759.41;10469444;28;20064;-79
2022/05/08 04:56:57;;;;;;;7.35;6.65;;;;;;;12.22;72.80;100760.91;10554347;28;20093;-79
2022/05/08 05:02:05;;;;;;;6.20;5.80;;;;;;;12.15;73.25;100772.50;10556165;28;20055;-79
2022/05/08 05:07:08;;;;;;;8.15;7.45;;;;;;;11.92;74.26;100777.53;10555669;28;20044;-79
2022/05/08 05:12:10;;;;;;;6.63;6.00;;;;;;;12.00;73.38;100776.44;10556717;28;20028;-79
2022/05/08 05:17:12;;;;;;;7.07;6.57;;;;;;;12.07;72.99;100779.75;10468906;28;20102;-78
2022/05/08 05:22:13;;;;;;;7.63;6.93;;;;;;;12.07;72.90;100783.25;10556466;28;20032;-79
2022/05/08 05:27:18;;;;;;;7.60;7.03;;;;;;;12.12;72.92;100781.34;10555173;28;20040;-79
2022/05/08 05:32:20;;;;;;;7.15;6.60;;;;;;;12.50;71.64;100783.88;10476881;28;20032;-80
2022/05/08 05:37:21;;;;;;;8.02;7.43;;;;;;;12.72;70.18;100795.56;10485630;28;20048;-80
2022/05/08 05:42:23;;;;;;;7.90;7.15;;;;;;;12.65;70.60;100799.25;10560124;28;20036;-81
2022/05/08 05:52:45;;;;;;;7.80;7.15;;;;;;;13.00;69.50;100813.22;10555311;28;20040;-80
2022/05/08 05:57:47;;;;;;;7.18;6.65;;;;;;;13.56;67.27;100816.81;10565976;28;20044;-80
2022/05/08 06:02:48;;;;;;;8.05;7.38;;;;;;;13.68;66.62;100826.16;10478541;28;20044;-81
2022/05/08 06:07:50;;;;;;;7.90;7.30;;;;;;;14.06;66.28;100835.44;10574336;28;20052;-80
2022/05/08 06:12:52;;;;;;;7.05;6.57;;;;;;;14.98;62.22;100834.03;10570943;28;20032;-80
2022/05/08 06:17:53;;;;;;;7.55;6.90;;;;;;;15.07;62.57;100838.97;10569861;28;20032;-80
2022/05/08 06:22:55;;;;;;;7.82;7.13;;;;;;;15.26;62.48;100842.63;10579045;28;20048;-80
2022/05/08 06:27:58;;;;;;;7.90;7.30;;;;;;;15.69;61.15;100834.84;10580697;28;20062;-80
2022/05/08 06:32:59;;;;;;;8.40;7.70;;;;;;;16.10;61.33;100847.25;10489015;28;20059;-79
2022/05/08 06:38:10;;;;;;;6.95;6.40;;;;;;;16.33;60.50;100837.47;10565490;28;20043;-80
2022/05/08 06:43:12;;;;;;;7.90;7.03;;;;;;;16.33;59.81;100834.81;10569634;28;20065;-80
2022/05/08 06:48:13;;;;;;;10.05;7.80;;;;;;;16.43;61.54;100837.94;10567979;28;20052;-79
2022/05/08 06:53:15;;;;;;;7.50;7.00;;;;;;;16.70;61.77;100835.88;10586994;28;20044;-80
2022/05/08 06:58:16;;;;;;;7.75;7.18;;;;;;;17.08;60.66;100837.69;10566317;28;20048;-80
2022/05/08 07:03:18;;;;;;;7.85;7.25;;;;;;;16.92;61.14;100836.69;10564275;28;20070;-80
2022/05/08 07:08:19;;;;;;;7.47;6.97;;;;;;;17.09;61.27;100835.91;10561129;28;20040;-80
2022/05/08 07:13:25;;;;;;;8.48;7.88;;;;;;;17.23;60.83;100845.91;10473979;28;20040;-80
2022/05/08 07:18:27;;;;;;;8.57;7.95;;;;;;;17.28;61.28;100842.09;10558509;28;20048;-81
2022/05/08 07:23:30;;;;;;;8.52;7.82;;;;;;;16.90;63.19;100847.34;10385044;28;20045;-81
2022/05/08 07:28:32;;;;;;;8.07;7.25;;;;;;;17.50;61.85;100841.06;10383974;28;20045;-81
2022/05/08 07:33:37;;;;;;;7.57;6.97;;;;;;;18.22;58.87;100835.75;10385819;28;20034;-79
2022/05/08 07:38:46;;;;;;;7.95;7.13;;;;;;;18.33;58.64;100844.06;10382432;28;20052;-80
2022/05/08 07:43:48;;;;;;;7.63;7.03;;;;;;;18.45;58.33;100852.34;10383989;28;20050;-79
2022/05/08 07:48:49;;;;;;;7.65;7.05;;;;;;;18.53;57.18;100851.00;10381662;28;20538;-79
2022/05/08 07:53:51;;;;;;;8.20;7.57;;;;;;;18.86;55.73;100847.56;10383135;28;20348;-81
2022/05/08 07:58:53;;;;;;;6.97;6.40;;;;;;;18.69;57.21;100847.56;10454151;28;20405;-80
2022/05/08 08:03:54;;;;;;;7.20;6.60;;;;;;;18.60;59.32;100854.25;10392316;28;20502;-80
2022/05/08 08:08:56;;;;;;;8.07;7.53;;;;;;;18.09;60.16;100855.94;10395542;28;20158;-80
2022/05/08 08:14:04;;;;;;;8.40;7.80;;;;;;;18.23;60.96;100865.88;10398187;28;20117;-82
2022/05/08 08:19:05;;;;;;;8.85;8.18;;;;;;;17.85;62.18;100866.84;10401388;28;20050;-82
2022/05/08 08:24:07;;;;;;;9.48;8.77;;;;;;;17.31;63.94;100872.94;10401961;28;20042;-81
2022/05/08 08:29:08;;;;;;;8.40;7.75;;;;;;;18.13;62.26;100869.00;10404771;28;20115;-81
2022/05/08 08:34:10;;;;;;;9.00;8.20;;;;;;;18.32;59.99;100873.41;10407145;28;20045;-80
2022/05/08 08:39:11;;;;;;;7.55;7.00;;;;;;;18.76;57.50;100873.81;10405346;28;20511;-78
2022/05/08 08:49:50;;;;;;;7.50;6.90;;;;;;;19.22;57.36;100883.84;10394564;28;20046;-80
2022/05/08 08:54:52;;;;;;;7.07;6.68;;;;;;;19.67;55.73;100890.28;10392032;28;20049;-79
2022/05/08 08:59:54;;;;;;;7.93;7.40;;;;;;;19.84;55.52;100893.72;10385069;28;20407;-80
2022/05/08 09:04:57;;;;;;;7.47;6.97;;;;;;;19.93;55.10;100891.47;10454112;28;20052;-80
2022/05/08 09:10:09;;;;;;;7.70;7.07;;;;;;;20.15;54.60;100897.31;10453625;28;20054;-80
2022/05/08 09:15:25;;;;;;;7.43;6.95;;;;;;;20.31;53.53;100889.25;10452625;28;20499;-81
2022/05/08 09:20:30;;;;;;;7.05;6.60;;;;;;;20.16;53.56;100889.19;10386803;28;20065;-81
2022/05/08 09:25:52;;;;;;;7.40;6.80;;;;;;;19.98;54.69;100890.28;10386898;28;20042;-81
2022/05/08 09:31:18;;;;;;;8.50;7.47;;;;;;;20.32;54.17;100893.63;10459770;28;20045;-80
2022/05/08 09:36:24;;;;;;;7.95;7.15;;;;;;;20.70;53.40;100885.19;10467226;28;20095;-80
2022/05/08 09:41:31;;;;;;;7.37;6.83;;;;;;;21.12;53.58;100890.59;10401613;28;20101;-81
2022/05/08 09:46:36;;;;;;;8.90;8.30;;;;;;;20.33;53.56;100888.22;10459484;28;20034;-81
2022/05/08 09:51:40;;;;;;;8.45;7.75;;;;;;;21.40;51.96;100895.09;10389762;28;20549;-81
2022/05/08 09:56:42;;;;;;;7.07;6.38;;;;;;;20.36;55.23;100890.72;10390178;28;20042;-80
2022/05/08 10:01:44;;;;;;;7.70;7.10;;;;;;;20.55;53.83;100889.66;10388114;28;20034;-79
2022/05/08 10:06:46;;;;;;;6.90;6.40;;;;;;;21.54;52.60;100891.53;10387935;28;20034;-80
2022/05/08 10:17:12;;;;;;;7.55;6.70;;;;;;;21.69;50.06;100884.31;10394897;28;20530;-81
2022/05/08 10:22:13;;;;;;;6.60;6.10;;;;;;;21.95;49.35;100879.97;10386739;28;20086;-80
2022/05/08 10:27:31;;;;;;;5.80;5.40;;;;;;;21.80;50.13;100883.66;10393418;28;20050;-79
2022/05/08 10:32:32;;;;;;;6.03;5.63;;;;;;;21.22;51.42;100890.03;10395620;28;20054;-79
2022/05/08 10:37:35;;;;;;;6.47;5.88;;;;;;;21.45;51.39;100883.25;10394598;28;20056;-80
2022/05/08 10:42:42;;;;;;;7.13;4.85;;;;;;;21.90;51.30;100872.22;10399549;28;20057;-80
2022/05/08 10:47:44;;;;;;;5.03;4.63;;;;;;;22.06;49.43;100865.88;10464647;28;20057;-80
2022/05/08 10:52:47;;;;;;;7.03;4.57;;;;;;;22.69;48.00;100865.19;10395042;28;20093;-80
2022/05/08 10:57:50;;;;;;;4.65;4.10;;;;;;;23.20;48.11;100872.38;10452249;28;20053;-79
2022/05/08 11:02:57;;;;;;;5.20;4.78;;;;;;;22.73;47.78;100866.69;10400920;28;20050;-79
2022/05/08 11:08:05;;;;;;;6.68;4.82;;;;;;;22.57;49.04;100866.88;10387797;28;20050;-80
2022/05/08 11:13:09;;;;;;;9.60;4.43;;;;;;;22.46;49.17;100861.41;10381748;28;20053;-80
2022/05/08 11:18:22;;;;;;;4.45;4.15;;;;;;;21.83;51.08;100860.22;10455215;28;20113;-79
2022/05/08 11:23:27;;;;;;;4.85;4.45;;;;;;;22.72;47.85;100862.28;10388319;28;20053;-80
2022/05/08 11:28:30;;;;;;;4.93;4.40;;;;;;;22.61;48.04;100860.34;10384721;28;20385;-80
2022/05/08 11:38:59;;;;;;;4.35;3.97;;;;;;;21.78;48.47;100875.72;10386259;28;20045;-80
2022/05/08 11:44:02;;;;;;;;;;;;;;;22.17;48.77;100858.00;10390235;28;20042;-80
2022/05/08 11:49:19;;;;;;;4.30;3.90;;;;;;;22.31;47.62;100851.72;10385649;28;20022;-80
2022/05/08 11:54:35;;;;;;;8.30;4.40;;;;;;;21.81;48.81;100867.47;10452613;28;20095;-80
2022/05/08 11:59:36;;;;;;;4.28;3.95;;;;;;;21.48;49.17;100857.16;10451283;28;20417;-80
2022/05/08 12:04:39;;;;;;;3.92;3.63;;;;;;;21.73;47.58;100848.38;10384611;28;20046;-80
2022/05/08 12:09:43;;;;;;;9.63;4.47;;;;;;;21.96;46.67;100857.59;10384399;28;20046;-80
2022/05/08 12:14:44;;;;;;;3.67;3.33;;;;;;;22.42;45.20;100842.00;10384895;28;20050;-79
2022/05/08 12:19:51;;;;;;;3.85;3.40;;;;;;;22.66;45.95;100851.97;10453289;28;20046;-80
2022/05/08 12:25:01;;;;;;;3.42;3.13;;;;;;;22.60;47.03;100849.72;10383138;28;20057;-80
2022/05/08 12:30:08;;;;;;;3.03;2.83;;;;;;;22.02;46.25;100848.31;10382173;28;20046;-80
2022/05/08 12:35:13;;;;;;;3.47;3.17;;;;;;;22.49;45.01;100836.22;10385360;28;20046;-79
2022/05/08 12:40:16;;;;;;;3.58;3.03;;;;;;;21.71;47.18;100842.28;10394902;28;20046;-80
2022/05/08 12:45:21;;;;;;;;;;;;;;;21.50;47.77;100851.72;10411981;28;20045;-78
2022/05/08 12:50:22;;;;;;;4.93;2.63;;;;;;;22.22;44.81;100842.47;10478186;28;19921;-80
2022/05/08 12:55:24;;;;;;;3.20;2.83;;;;;;;22.03;44.78;100828.59;10477506;28;20046;-78
2022/05/08 13:00:26;;;;;;;2.80;2.00;;;;;;;21.92;45.95;100838.22;10482804;28;20050;-79
2022/05/08 13:05:27;;;;;;;4.95;2.35;;;;;;;22.40;44.21;100833.22;10403582;28;20041;-80
2022/05/08 13:10:30;;;;;;;2.55;1.63;;;;;;;22.63;44.08;100822.72;10395533;28;20049;-79
2022/05/08 13:15:33;;;;;;;4.93;2.20;;;;;;;22.09;44.68;100826.38;10395293;28;20449;-80
2022/05/08 13:20:35;;;;;;;2.20;1.80;;;;;;;21.52;46.87;100828.41;10395329;28;20050;-80
2022/05/08 13:25:36;;;;;;;2.70;1.83;;;;;;;21.95;46.50;100831.78;10394597;28;20034;-81
2022/05/08 13:30:38;;;;;;;3.72;2.08;;;;;;;21.23;47.41;100827.56;10396033;28;20049;-79
2022/05/08 13:35:40;;;;;;;3.00;1.92;;;;;;;21.23;46.96;100827.56;10459603;28;20053;-79
2022/05/08 13:40:42;;;;;;;4.32;2.17;;;;;;;21.30;46.82;100819.06;10389565;28;20046;-80
2022/05/08 13:45:45;;;;;;;2.08;1.88;;;;;;;20.88;47.74;100814.59;10470274;28;20050;-79
2022/05/08 13:50:47;;;;;;;3.45;2.13;;;;;;;21.24;47.02;100813.22;10402563;28;20042;-80
2022/05/08 13:55:51;;;;;;;2.20;2.00;;;;;;;21.19;46.70;100815.34;10391738;28;20399;-80
2022/05/08 14:00:57;;;;;;;4.65;2.05;;;;;;;21.30;47.54;100803.00;10396999;28;20038;-80
2022/05/08 14:06:00;;;;;;;2.30;2.10;;;;;;;20.90;46.51;100800.19;10470078;28;20045;-80
2022/05/08 14:11:03;;;;;;;2.50;2.20;;;;;;;21.36;46.94;100801.78;10397082;28;20045;-78
2022/05/08 14:16:05;;;;;;;4.70;2.25;;;;;;;21.57;46.96;100802.22;10399061;28;20349;-81
2022/05/08 14:21:07;;;;;;;5.75;2.35;;;;;;;21.78;46.30;100810.63;10398294;28;20042;-80
2022/05/08 14:26:12;;;;;;;3.67;2.55;;;;;;;21.69;46.31;100803.19;10673785;22;20051;-80
2022/05/08 14:36:34;;;;;;;2.22;1.90;;;;;;;21.22;45.63;100805.31;10682417;27;20035;-80
2022/05/08 14:41:36;;;;;;;3.17;1.88;;;;;;;20.85;45.51;100801.41;10686818;27;20043;-79
2022/05/08 14:46:37;;;;;;;3.90;2.13;;;;;;;20.75;46.31;100792.25;10665199;27;20054;-80
2022/05/08 14:51:39;;;;;;;2.92;1.98;;;;;;;21.38;45.43;100783.81;10663092;27;20046;-80
2022/05/08 14:56:41;;;;;;;2.88;2.13;;;;;;;21.41;45.70;100784.47;10683688;27;20054;-79
2022/05/08 15:01:42;;;;;;;4.35;2.50;;;;;;;21.37;44.90;100788.28;10678802;27;20039;-79
2022/05/08 15:06:45;;;;;;;2.92;1.65;;;;;;;21.25;44.46;100798.88;10681739;27;20038;-80
2022/05/08 15:11:46;;;;;;;3.03;1.70;;;;;;;21.25;45.40;100789.09;10647275;27;20462;-81
2022/05/08 15:16:48;;;;;;;3.67;2.05;;;;;;;21.00;44.67;100787.09;10685435;27;20031;-79
2022/05/08 15:21:53;;;;;;;3.25;2.22;;;;;;;20.93;44.60;100788.44;10681209;27;20436;-81
2022/05/08 15:26:56;;;;;;;1.55;1.15;;;;;;;21.10;44.64;100785.56;10645570;27;20069;-81
2022/05/08 15:31:57;;;;;;;3.97;1.50;;;;;;;20.74;43.77;100791.41;10646578;27;20043;-79
2022/05/08 15:37:08;;;;;;;1.83;1.50;;;;;;;20.56;44.38;100796.06;10681925;27;20038;-79
2022/05/08 15:42:10;;;;;;;2.72;1.70;;;;;;;20.35;45.23;100800.84;10681589;27;20057;-80
2022/05/08 15:47:12;;;;;;;2.15;1.50;;;;;;;20.36;44.26;100801.72;10644644;27;20054;-80
2022/05/08 15:52:14;;;;;;;3.72;1.63;;;;;;;20.50;44.37;100801.81;10684675;27;20045;-81
2022/05/08 15:57:16;;;;;;;4.00;1.38;;;;;;;20.67;43.16;100795.41;10690349;27;20064;-80
2022/05/08 16:02:17;;;;;;;3.17;1.33;;;;;;;21.13;42.80;100795.22;10695693;27;20049;-80
2022/05/08 16:07:20;;;;;;;2.50;1.40;;;;;;;21.00;42.24;100803.13;10666490;27;20583;-80
2022/05/08 16:12:21;;;;;;;3.97;1.38;;;;;;;20.41;43.14;100808.53;10664867;27;20038;-79
2022/05/08 16:28:05;;;;;;;2.08;1.15;;;;;;;20.12;43.57;100806.72;10693085;27;20041;-80
2022/05/08 16:33:06;;;;;;;2.53;1.10;;;;;;;20.01;44.24;100801.16;10674824;27;20426;-79
2022/05/08 16:38:08;;;;;;;2.53;2.03;;;;;;;19.82;44.60;100806.72;10704129;27;20551;-80
2022/05/08 16:43:11;;;;;;;3.13;1.27;;;;;;;19.72;44.06;100811.72;10685221;27;20047;-80
2022/05/08 16:48:12;;;;;;;4.05;1.50;;;;;;;19.73;44.15;100823.25;10676427;27;20046;-80
2022/05/08 16:53:14;;;;;;;2.85;1.30;;;;;;;19.52;43.95;100820.84;10672818;27;20046;-81
2022/05/08 16:58:16;;;;;;;2.55;1.20;;;;;;;19.53;44.32;100822.56;10694504;27;20042;-79
2022/05/08 17:03:18;;;;;;;3.45;1.50;;;;;;;19.45;44.93;100823.94;10674263;27;20076;-80
2022/05/08 17:08:20;;;;;;;2.42;1.20;;;;;;;19.59;44.50;100824.00;10675687;27;20058;-79
2022/05/08 17:13:24;;;;;;;1.80;1.30;;;;;;;19.59;44.21;100826.66;10660918;27;20499;-80
2022/05/08 17:18:29;;;;;;;2.55;1.42;;;;;;;19.54;44.54;100826.06;10675998;27;20075;-80
2022/05/08 17:23:43;;;;;;;5.90;1.30;;;;;;;19.50;44.50;100836.03;10677315;27;20078;-79
2022/05/08 17:28:57;;;;;;;2.70;1.50;;;;;;;19.48;44.08;100839.72;10685551;27;20053;-79
2022/05/08 17:40:59;;;;;;;4.17;1.47;;;;;;;19.14;44.87;100841.63;10420315;28;20156;-79
2022/05/08 17:46:01;;;;;;;2.92;1.38;;;;;;;18.85;45.75;100841.38;10404346;28;20080;-79
2022/05/08 17:51:03;;;;;;;3.30;1.55;;;;;;;18.78;45.76;100845.31;10390268;28;20065;-79
2022/05/08 17:56:05;;;;;;;3.08;1.83;;;;;;;18.55;46.66;100846.50;10400571;28;20050;-79
2022/05/08 18:01:07;;;;;;;6.47;1.77;;;;;;;18.63;46.51;100848.72;10396477;28;20215;-80
2022/05/08 18:06:15;;;;;;;2.30;1.70;;;;;;;18.33;47.23;100857.38;10391801;28;20058;-80
2022/05/08 18:11:19;;;;;;;4.88;1.80;;;;;;;18.12;47.68;100859.31;10339032;28;20415;-79
2022/05/08 18:16:24;;;;;;;3.08;1.80;;;;;;;18.12;48.10;100861.13;10525480;27;20058;-81
2022/05/08 18:21:29;;;;;;;;;;;;;;;18.05;48.66;100868.53;10696523;27;20084;-79
2022/05/08 18:26:35;;;;;;;3.80;1.70;;;;;;;17.94;49.02;100870.88;10718643;27;19930;-79
2022/05/08 18:31:39;;;;;;;2.72;1.58;;;;;;;17.76;49.87;100880.59;10699513;27;20046;-79
2022/05/08 18:36:40;;;;;;;3.88;2.00;;;;;;;17.73;50.24;100882.50;10709555;27;20039;-81
2022/05/08 18:41:42;;;;;;;6.60;2.05;;;;;;;17.52;51.43;100890.56;10688614;27;20045;-80
2022/05/08 18:46:44;;;;;;;2.72;1.80;;;;;;;17.72;50.38;100902.94;10687626;27;20041;-80
2022/05/08 18:51:46;;;;;;;4.53;1.70;;;;;;;17.57;51.12;100908.94;10687582;27;20107;-81
2022/05/08 18:56:49;;;;;;;2.25;1.40;;;;;;;17.39;51.51;100914.19;10651202;27;20038;-81
2022/05/08 19:01:53;;;;;;;2.70;1.42;;;;;;;17.36;51.45;100910.84;10686347;27;20091;-80
2022/05/08 19:06:55;;;;;;;5.20;1.73;;;;;;;17.02;52.65;100914.13;10686142;27;20050;-80
2022/05/08 19:11:56;;;;;;;2.90;2.00;;;;;;;16.83;53.35;100922.06;10688235;27;20065;-79
2022/05/08 19:16:58;;;;;;;3.88;2.03;;;;;;;16.66;53.99;100930.72;10688037;27;20047;-80
2022/05/08 19:22:00;;;;;;;3.95;2.53;;;;;;;16.67;54.07;100927.13;10685449;27;20400;-80
2022/05/08 19:27:02;;;;;;;2.92;1.90;;;;;;;16.38;55.28;100942.50;10683879;27;20042;-81
2022/05/08 19:42:48;;;;;;;3.10;2.80;;;;;;;16.37;54.73;100956.66;10692107;27;20046;-79
2022/05/08 19:47:50;;;;;;;4.28;2.50;;;;;;;16.28;54.26;100966.78;10685136;27;20099;-79
2022/05/08 19:52:51;;;;;;;5.25;2.35;;;;;;;16.05;54.66;100970.38;10673066;27;20079;-79
2022/05/08 19:57:53;;;;;;;3.28;1.83;;;;;;;15.87;53.77;100971.97;10694224;27;20045;-79
2022/05/08 20:02:54;;;;;;;4.00;1.77;;;;;;;15.67;53.90;100975.38;10681221;27;20043;-79
2022/05/08 20:07:56;;;;;;;4.15;2.15;;;;;;;15.72;53.38;100976.06;10711828;27;20057;-81
2022/05/08 20:12:59;;;;;;;4.68;1.85;;;;;;;15.88;52.21;100981.63;10684640;27;20050;-80
2022/05/08 20:18:01;;;;;;;3.42;1.70;;;;;;;15.88;51.60;100982.50;10691998;27;20122;-79
2022/05/08 20:23:03;;;;;;;3.67;1.60;;;;;;;15.75;51.27;100986.53;10676798;27;20488;-79
2022/05/08 20:28:05;;;;;;;2.35;1.55;;;;;;;15.62;51.89;100991.41;10633272;22;20126;-81
2022/05/08 20:33:08;;;;;;;5.25;1.70;;;;;;;15.43;52.03;100997.44;10607782;28;20132;-82
2022/05/08 20:38:09;;;;;;;4.78;1.58;;;;;;;15.16;53.40;101000.16;10585221;28;20472;-81
2022/05/08 20:43:13;;;;;;;4.30;1.83;;;;;;;15.19;52.34;101010.66;10604620;28;20055;-81
2022/05/08 20:48:15;;;;;;;4.07;1.80;;;;;;;15.08;52.28;101007.50;10615841;28;20039;-80
2022/05/08 20:53:16;;;;;;;4.95;2.10;;;;;;;15.14;52.01;101007.31;10626389;28;20056;-80
2022/05/08 20:58:18;;;;;;;3.92;1.60;;;;;;;15.05;51.30;101013.81;10634433;28;20054;-80
2022/05/08 21:03:20;;;;;;;3.55;1.58;;;;;;;14.94;50.13;101015.94;10613930;28;20107;-80
2022/05/08 21:08:22;;;;;;;2.35;1.13;;;;;;;14.80;50.47;101018.19;10633000;28;20044;-81
2022/05/08 21:13:23;;;;;;;4.13;1.48;;;;;;;14.80;49.33;101020.84;10619096;28;20048;-80
2022/05/08 21:18:25;;;;;;;5.78;1.50;;;;;;;14.79;49.60;101027.06;10615695;28;20067;-81
2022/05/08 21:23:28;;;;;;;3.22;1.25;;;;;;;14.59;50.90;101033.00;10610589;28;20055;-81
2022/05/08 21:28:29;;;;;;;4.43;1.25;;;;;;;14.33;52.07;101026.72;10593378;28;20048;-81
2022/05/08 21:33:31;;;;;;;2.42;1.35;;;;;;;13.99;53.14;101031.28;10610527;28;20114;-81
2022/05/08 21:38:32;;;;;;;3.35;1.40;;;;;;;13.89;53.34;101031.56;10609602;28;20042;-81
2022/05/08 21:43:34;;;;;;;3.55;1.30;;;;;;;14.24;50.71;101028.78;10592766;28;20052;-80
2022/05/08 21:48:37;;;;;;;2.67;1.20;;;;;;;13.88;52.72;101036.91;10608336;28;20415;-81
2022/05/08 21:53:39;;;;;;;3.67;1.45;;;;;;;13.84;51.56;101057.28;10607873;28;20062;-80
2022/05/08 21:58:42;;;;;;;3.00;1.40;;;;;;;14.01;51.84;101058.56;10608619;28;20050;-81
2022/05/08 22:03:43;;;;;;;4.55;1.25;;;;;;;13.76;51.73;101066.34;10608062;28;20104;-80
2022/05/08 22:08:45;;;;;;;1.90;1.00;;;;;;;13.55;52.19;101055.47;10621099;28;20061;-80
2022/05/08 22:13:46;;;;;;;3.90;1.60;;;;;;;13.66;50.06;101059.59;10604960;28;20062;-81
2022/05/08 22:24:08;;;;;;;4.68;1.63;;;;;;;13.55;49.67;101067.81;10620005;28;20096;-80
2022/05/08 22:29:11;;;;;;;5.50;1.20;;;;;;;13.47;49.25;101059.25;10619320;28;20040;-79
2022/05/08 22:34:16;;;;;;;4.85;1.30;;;;;;;13.26;49.00;101068.59;10619279;28;20065;-79
2022/05/08 22:39:18;;;;;;;2.20;1.05;;;;;;;13.13;48.75;101070.66;10622267;28;20043;-79
2022/05/08 22:44:20;;;;;;;3.40;1.05;;;;;;;13.28;47.47;101066.75;10602427;28;20107;-79
2022/05/08 22:49:22;;;;;;;5.05;1.15;;;;;;;13.11;47.60;101077.75;10618531;28;20069;-81
2022/05/08 22:54:23;;;;;;;3.17;1.20;;;;;;;13.12;47.83;101079.47;10608608;28;20039;-80
2022/05/08 22:59:25;;;;;;;3.78;1.00;;;;;;;12.86;47.96;101074.84;10609561;28;20055;-81
2022/05/08 23:04:26;;;;;;;3.38;1.23;;;;;;;12.64;49.59;101063.94;10617208;28;20055;-79
2022/05/08 23:09:28;;;;;;;5.25;1.23;;;;;;;12.88;47.68;101068.66;10610226;28;19920;-80
2022/05/08 23:20:10;;;;;;;3.53;1.23;;;;;;;12.55;49.21;101086.13;10607149;28;20047;-80
2022/05/08 23:25:15;;;;;;;3.47;1.20;;;;;;;12.68;49.09;101084.06;10599036;28;20039;-81
2022/05/08 23:30:18;;;;;;;1.83;1.00;;;;;;;12.49;49.39;101082.78;10579653;28;20576;-80
2022/05/08 23:35:22;;;;;;;2.65;1.20;;;;;;;12.49;49.93;101082.78;10598105;28;20073;-79
2022/05/08 23:40:29;;;;;;;4.60;1.13;;;;;;;12.19;50.75;101085.19;10599536;28;20434;-81
2022/05/08 23:45:30;;;;;;;3.05;1.15;;;;;;;11.91;52.31;101084.91;10600761;28;20039;-81
2022/05/08 23:50:32;;;;;;;7.18;1.52;;;;;;;11.99;53.53;101084.75;10597426;28;20043;-81
2022/05/08 23:55:36;;;;;;;4.35;1.25;;;;;;;12.02;52.21;101088.19;10591510;28;20032;-79
